createdAt,value
2022-10-09T00:01:52.460Z,102424.19
2022-10-09T00:04:22.265Z,102418.13
2022-10-09T00:06:54.653Z,102413.66
2022-10-09T00:09:24.422Z,102416.22
2022-10-09T00:11:54.279Z,102424.94
2022-10-09T00:14:24.010Z,102426.56
2022-10-09T00:16:53.830Z,102415.13
2022-10-09T00:19:23.659Z,102430.03
2022-10-09T00:21:56.021Z,102428.13
2022-10-09T00:24:25.845Z,102420.13
2022-10-09T00:26:55.582Z,102426.13
2022-10-09T00:29:25.509Z,102419.06
2022-10-09T00:31:55.285Z,102433.06
2022-10-09T00:34:25.001Z,102432.06
2022-10-09T00:36:57.338Z,102432.88
2022-10-09T00:39:27.077Z,102432.81
2022-10-09T00:41:56.784Z,102437.13
2022-10-09T00:44:52.993Z,102436.34
2022-10-09T00:47:28.182Z,102437.97
2022-10-09T00:50:02.804Z,102442.34
2022-10-09T00:52:35.638Z,102441.44
2022-10-09T00:55:07.040Z,102440.44
2022-10-09T00:57:37.342Z,102440.34
2022-10-09T01:00:12.620Z,102444.59
2022-10-09T01:02:42.805Z,102443.63
2022-10-09T01:05:16.933Z,102440.00
2022-10-09T01:07:55.597Z,102441.78
2022-10-09T01:10:32.283Z,102447.00
2022-10-09T01:13:09.441Z,102443.34
2022-10-09T01:15:47.288Z,102447.72
2022-10-09T01:18:25.100Z,102445.88
2022-10-09T01:20:57.631Z,102452.00
2022-10-09T01:23:51.073Z,102450.25
2022-10-09T01:26:34.514Z,102450.16
2022-10-09T01:29:10.927Z,102443.09
2022-10-09T01:31:44.730Z,102445.63
2022-10-09T01:34:16.392Z,102442.91
2022-10-09T01:36:47.674Z,102443.72
2022-10-09T01:39:20.297Z,102445.38
2022-10-09T01:41:51.806Z,102440.91
2022-10-09T01:44:25.653Z,102435.59
2022-10-09T01:46:56.109Z,102440.75
2022-10-09T01:49:42.108Z,102429.22
2022-10-09T01:52:23.401Z,102433.47
2022-10-09T01:55:03.830Z,102434.31
2022-10-09T01:57:43.185Z,102430.56
2022-10-09T02:00:16.793Z,102425.22
2022-10-09T02:02:48.186Z,102420.59
2022-10-09T02:05:22.125Z,102418.69
2022-10-09T02:07:52.193Z,102416.00
2022-10-09T02:10:24.369Z,102409.56
2022-10-09T02:12:58.097Z,102408.56
2022-10-09T02:15:34.368Z,102417.25
2022-10-09T02:18:11.201Z,102412.63
2022-10-09T02:20:47.301Z,102416.88
2022-10-09T02:23:19.960Z,102417.63
2022-10-09T02:25:49.762Z,102409.63
2022-10-09T02:28:19.753Z,102410.44
2022-10-09T02:30:58.643Z,102413.09
2022-10-09T02:33:34.591Z,102414.72
2022-10-09T02:36:04.926Z,102412.91
2022-10-09T02:38:34.706Z,102407.44
2022-10-09T02:41:05.025Z,102407.44
2022-10-09T02:43:34.774Z,102402.19
2022-10-09T02:46:07.237Z,102412.63
2022-10-09T02:48:37.109Z,102411.78
2022-10-09T02:51:07.074Z,102414.34
2022-10-09T02:53:36.874Z,102406.47
2022-10-09T02:56:06.670Z,102400.28
2022-10-09T02:58:38.476Z,102402.00
2022-10-09T03:01:10.815Z,102403.63
2022-10-09T03:03:40.791Z,102400.78
2022-10-09T03:06:12.801Z,102407.78
2022-10-09T03:08:45.263Z,102405.03
2022-10-09T03:11:16.892Z,102400.44
2022-10-09T03:13:47.141Z,102404.69
2022-10-09T03:16:21.462Z,102399.25
2022-10-09T03:18:52.241Z,102403.50
2022-10-09T03:21:23.509Z,102408.66
2022-10-09T03:23:53.768Z,102405.94
2022-10-09T03:26:25.248Z,102404.03
2022-10-09T03:28:56.433Z,102404.66
2022-10-09T03:34:19.821Z,102399.84
2022-10-09T03:36:49.622Z,102409.34
2022-10-09T03:39:19.322Z,102407.38
2022-10-09T03:41:49.080Z,102403.72
2022-10-09T03:44:18.792Z,102410.53
2022-10-09T03:46:52.693Z,102419.13
2022-10-09T03:49:22.490Z,102420.66
2022-10-09T03:51:52.232Z,102417.00
2022-10-09T03:54:21.975Z,102414.19
2022-10-09T03:56:51.701Z,102418.44
2022-10-09T03:59:21.438Z,102413.81
2022-10-09T04:01:53.837Z,102416.34
2022-10-09T04:04:23.576Z,102416.25
2022-10-09T04:06:53.325Z,102411.63
2022-10-09T04:09:23.037Z,102415.88
2022-10-09T04:11:52.777Z,102416.47
2022-10-09T04:14:22.534Z,102424.28
2022-10-09T04:16:54.839Z,102420.53
2022-10-09T04:19:24.745Z,102419.50
2022-10-09T04:21:54.487Z,102421.94
2022-10-09T04:24:24.178Z,102418.25
2022-10-09T04:26:54.039Z,102415.44
2022-10-09T04:29:23.879Z,102424.09
2022-10-09T04:31:56.230Z,102415.31
2022-10-09T04:34:26.371Z,102426.53
2022-10-09T04:36:56.079Z,102418.53
2022-10-09T04:39:25.814Z,102419.38
2022-10-09T04:41:55.535Z,102406.94
2022-10-09T04:44:25.298Z,102406.06
2022-10-09T04:46:57.808Z,102404.22
2022-10-09T04:49:27.582Z,102408.50
2022-10-09T04:51:57.314Z,102412.00
2022-10-09T04:54:27.050Z,102412.72
2022-10-09T04:56:56.846Z,102405.63
2022-10-09T04:59:26.587Z,102406.47
2022-10-09T05:01:59.065Z,102405.44
2022-10-09T05:04:28.950Z,102415.94
2022-10-09T05:06:58.716Z,102411.41
2022-10-09T05:09:28.586Z,102406.03
2022-10-09T05:11:58.374Z,102407.78
2022-10-09T05:14:28.189Z,102412.94
2022-10-09T05:17:23.144Z,102415.56
2022-10-09T05:19:53.331Z,102421.59
2022-10-09T05:22:23.058Z,102414.56
2022-10-09T05:24:52.842Z,102412.72
2022-10-09T05:27:22.595Z,102417.97
2022-10-09T05:29:52.324Z,102418.91
2022-10-09T05:32:24.706Z,102415.25
2022-10-09T05:34:54.443Z,102410.81
2022-10-09T05:37:24.151Z,102414.25
2022-10-09T05:39:53.854Z,102416.88
2022-10-09T05:42:23.594Z,102414.06
2022-10-09T05:44:53.323Z,102421.94
2022-10-09T05:47:25.781Z,102414.84
2022-10-09T05:49:55.534Z,102414.75
2022-10-09T05:52:25.264Z,102423.44
2022-10-09T05:54:57.027Z,102417.19
2022-10-09T05:57:26.740Z,102412.75
2022-10-09T05:59:56.462Z,102417.09
2022-10-09T06:02:28.885Z,102414.47
2022-10-09T06:04:58.860Z,102412.66
2022-10-09T06:07:28.602Z,102419.59
2022-10-09T06:09:58.346Z,102416.97
2022-10-09T06:12:28.077Z,102417.91
2022-10-09T06:14:57.971Z,102419.59
2022-10-09T06:17:30.354Z,102422.22
2022-10-09T06:20:00.131Z,102417.78
2022-10-09T06:22:29.920Z,102412.44
2022-10-09T06:24:59.676Z,102415.06
2022-10-09T06:27:30.620Z,102411.53
2022-10-09T06:30:01.279Z,102411.53
2022-10-09T06:32:33.704Z,102417.78
2022-10-09T06:35:03.469Z,102413.44
2022-10-09T06:37:33.212Z,102419.59
2022-10-09T06:40:03.000Z,102418.09
2022-10-09T06:42:32.954Z,102421.63
2022-10-09T06:45:02.727Z,102420.91
2022-10-09T06:47:35.165Z,102420.22
2022-10-09T06:50:04.919Z,102423.84
2022-10-09T06:52:34.916Z,102421.41
2022-10-09T06:55:04.646Z,102425.13
2022-10-09T06:57:34.719Z,102427.97
2022-10-09T07:00:04.545Z,102428.06
2022-10-09T07:02:43.179Z,102428.28
2022-10-09T07:05:13.779Z,102431.09
2022-10-09T07:07:43.957Z,102439.16
2022-10-09T07:10:13.839Z,102429.69
2022-10-09T07:12:43.580Z,102433.41
2022-10-09T07:15:14.127Z,102427.44
2022-10-09T07:17:46.486Z,102432.97
2022-10-09T07:20:16.210Z,102428.75
2022-10-09T07:22:46.320Z,102431.56
2022-10-09T07:25:16.432Z,102437.13
2022-10-09T07:27:46.244Z,102443.56
2022-10-09T07:30:16.320Z,102428.81
2022-10-09T07:32:49.034Z,102436.16
2022-10-09T07:35:19.239Z,102431.22
2022-10-09T07:37:48.968Z,102435.03
2022-10-09T07:40:21.145Z,102430.06
2022-10-09T07:42:51.207Z,102430.31
2022-10-09T07:45:21.131Z,102429.81
2022-10-09T07:47:53.452Z,102431.91
2022-10-09T07:50:23.235Z,102439.25
2022-10-09T07:52:52.950Z,102430.06
2022-10-09T07:55:22.695Z,102432.97
2022-10-09T07:57:53.521Z,102440.41
2022-10-09T08:00:23.329Z,102439.03
2022-10-09T08:02:55.937Z,102439.47
2022-10-09T08:05:25.737Z,102445.97
2022-10-09T08:07:55.471Z,102440.19
2022-10-09T08:10:25.247Z,102434.47
2022-10-09T08:12:55.762Z,102446.38
2022-10-09T08:15:25.659Z,102440.75
2022-10-09T08:17:58.371Z,102443.94
2022-10-09T08:20:28.112Z,102445.28
2022-10-09T08:22:57.817Z,102442.09
2022-10-09T08:25:27.683Z,102443.44
2022-10-09T08:27:58.234Z,102433.34
2022-10-09T08:30:27.987Z,102440.78
2022-10-09T08:33:00.386Z,102432.34
2022-10-09T08:35:34.416Z,102437.09
2022-10-09T08:38:04.470Z,102437.53
2022-10-09T08:40:42.073Z,102428.53
2022-10-09T08:43:18.253Z,102428.47
2022-10-09T08:45:50.337Z,102422.38
2022-10-09T08:48:28.451Z,102429.66
2022-10-09T08:51:01.802Z,102426.34
2022-10-09T08:53:41.454Z,102420.97
2022-10-09T08:56:17.062Z,102426.06
2022-10-09T08:58:47.472Z,102415.13
2022-10-09T09:01:25.825Z,102413.72
2022-10-09T09:04:11.275Z,102423.91
2022-10-09T09:06:49.169Z,102425.16
2022-10-09T09:09:26.504Z,102420.00
2022-10-09T09:12:02.400Z,102414.13
2022-10-09T09:14:46.169Z,102421.38
2022-10-09T09:17:26.368Z,102424.31
2022-10-09T09:20:08.279Z,102416.63
2022-10-09T09:22:42.830Z,102418.63
2022-10-09T09:25:24.103Z,102410.84
2022-10-09T09:27:56.946Z,102409.19
2022-10-09T09:30:31.467Z,102409.34
2022-10-09T09:33:10.357Z,102405.19
2022-10-09T09:35:52.062Z,102399.13
2022-10-09T09:38:21.833Z,102402.03
2022-10-09T09:40:52.135Z,102404.81
2022-10-09T09:43:24.550Z,102399.53
2022-10-09T09:45:56.413Z,102396.22
2022-10-09T09:48:35.091Z,102396.44
2022-10-09T09:51:27.416Z,102397.56
2022-10-09T09:54:01.992Z,102396.88
2022-10-09T09:57:10.509Z,102387.34
2022-10-09T09:59:35.110Z,102381.28
2022-10-09T10:02:07.420Z,102384.97
2022-10-09T10:04:42.451Z,102386.94
2022-10-09T10:07:15.643Z,102377.38
2022-10-09T10:09:45.389Z,102378.44
2022-10-09T10:12:19.333Z,102373.28
2022-10-09T10:14:53.375Z,102380.47
2022-10-09T10:17:32.016Z,102367.38
2022-10-09T10:20:01.869Z,102371.91
2022-10-09T10:22:39.148Z,102355.22
2022-10-09T10:25:18.077Z,102361.41
2022-10-09T10:27:51.214Z,102369.41
2022-10-09T10:30:22.665Z,102360.63
2022-10-09T10:32:58.682Z,102360.88
2022-10-09T10:35:32.081Z,102357.47
2022-10-09T10:38:07.963Z,102357.69
2022-10-09T10:40:40.438Z,102347.38
2022-10-09T10:43:18.759Z,102347.63
2022-10-09T10:45:59.418Z,102345.28
2022-10-09T10:48:32.527Z,102336.72
2022-10-09T10:51:11.079Z,102329.84
2022-10-09T10:54:01.247Z,102326.66
2022-10-09T10:56:34.416Z,102333.13
2022-10-09T10:59:22.786Z,102324.53
2022-10-09T11:02:03.898Z,102318.53
2022-10-09T11:04:42.787Z,102316.06
2022-10-09T11:07:29.433Z,102309.97
2022-10-09T11:10:12.217Z,102306.47
2022-10-09T11:12:52.110Z,102312.69
2022-10-09T11:15:31.002Z,102306.66
2022-10-09T11:18:12.130Z,102299.69
2022-10-09T11:20:57.212Z,102306.06
2022-10-09T11:23:36.081Z,102290.31
2022-10-09T11:26:18.127Z,102297.53
2022-10-09T11:28:54.931Z,102288.88
2022-10-09T11:31:31.382Z,102284.66
2022-10-09T11:34:07.366Z,102284.91
2022-10-09T11:36:45.482Z,102279.81
2022-10-09T11:39:18.864Z,102280.91
2022-10-09T11:41:55.523Z,102275.78
2022-10-09T11:44:40.280Z,102272.31
2022-10-09T11:47:17.592Z,102274.16
2022-10-09T11:50:00.621Z,102261.94
2022-10-09T11:52:42.489Z,102263.84
2022-10-09T11:55:22.261Z,102259.56
2022-10-09T11:57:54.645Z,102255.31
2022-10-09T12:00:34.503Z,102251.06
2022-10-09T12:03:07.117Z,102245.91
2022-10-09T12:05:42.948Z,102245.16
2022-10-09T12:08:19.249Z,102239.97
2022-10-09T12:10:55.468Z,102226.78
2022-10-09T12:13:43.944Z,102232.19
2022-10-09T12:16:29.820Z,102223.53
2022-10-09T12:19:01.938Z,102220.09
2022-10-09T12:21:37.188Z,102216.66
2022-10-09T12:24:07.700Z,102215.88
2022-10-09T12:26:38.678Z,102207.13
2022-10-09T12:29:22.072Z,102205.56
2022-10-09T12:31:54.433Z,102193.25
2022-10-09T12:34:27.877Z,102191.63
2022-10-09T12:37:13.900Z,102178.56
2022-10-09T12:39:44.013Z,102178.53
2022-10-09T12:42:20.432Z,102181.28
2022-10-09T12:44:56.059Z,102176.94
2022-10-09T12:47:29.523Z,102172.69
2022-10-09T12:50:02.044Z,102158.53
2022-10-09T12:52:33.492Z,102155.97
2022-10-09T12:55:05.200Z,102148.81
2022-10-09T12:57:36.220Z,102151.44
2022-10-09T13:00:09.739Z,102144.41
2022-10-09T13:02:39.661Z,102132.09
2022-10-09T13:05:10.205Z,102133.06
2022-10-09T13:07:40.201Z,102126.94
2022-10-09T13:10:19.879Z,102130.56
2022-10-09T13:12:54.666Z,102120.84
2022-10-09T13:15:35.405Z,102103.16
2022-10-09T13:18:22.740Z,102107.56
2022-10-09T13:21:01.994Z,102102.31
2022-10-09T13:23:34.127Z,102099.69
2022-10-09T13:26:05.206Z,102093.50
2022-10-09T13:28:35.220Z,102093.44
2022-10-09T13:31:15.325Z,102092.41
2022-10-09T13:33:45.115Z,102077.34
2022-10-09T13:36:15.570Z,102078.28
2022-10-09T13:38:45.799Z,102068.50
2022-10-09T13:41:17.540Z,102065.03
2022-10-09T13:43:47.833Z,102061.50
2022-10-09T13:46:20.268Z,102052.66
2022-10-09T13:48:50.253Z,102056.28
2022-10-09T13:51:20.065Z,102050.97
2022-10-09T13:53:50.116Z,102043.03
2022-10-09T13:56:20.034Z,102040.28
2022-10-09T13:58:49.843Z,102034.16
2022-10-09T14:01:22.432Z,102038.59
2022-10-09T14:03:52.435Z,102027.06
2022-10-09T14:06:22.619Z,102026.22
2022-10-09T14:08:52.844Z,102020.97
2022-10-09T14:11:22.926Z,102012.03
2022-10-09T14:13:52.792Z,102015.50
2022-10-09T14:16:25.280Z,102014.63
2022-10-09T14:18:58.434Z,102012.00
2022-10-09T14:21:29.142Z,102004.97
2022-10-09T14:24:00.438Z,102002.19
2022-10-09T14:26:31.240Z,102000.41
2022-10-09T14:29:03.147Z,101994.19
2022-10-09T14:31:35.766Z,101992.34
2022-10-09T14:34:05.868Z,101990.59
2022-10-09T14:36:37.296Z,101984.31
2022-10-09T14:39:07.401Z,101983.34
2022-10-09T14:41:38.049Z,101979.69
2022-10-09T14:44:08.487Z,101977.84
2022-10-09T14:46:40.902Z,101975.97
2022-10-09T14:49:13.265Z,101970.59
2022-10-09T14:51:44.016Z,101959.91
2022-10-09T14:54:15.290Z,101961.66
2022-10-09T14:56:45.159Z,101951.88
2022-10-09T14:59:15.168Z,101950.94
2022-10-09T15:01:47.607Z,101951.72
2022-10-09T15:04:17.694Z,101946.41
2022-10-09T15:06:47.451Z,101939.38
2022-10-09T15:09:17.216Z,101937.56
2022-10-09T15:11:47.007Z,101932.22
2022-10-09T15:14:16.730Z,101932.22
2022-10-09T15:16:49.024Z,101931.31
2022-10-09T15:19:18.733Z,101924.22
2022-10-09T15:21:48.488Z,101926.81
2022-10-09T15:24:18.178Z,101918.75
2022-10-09T15:26:47.892Z,101919.56
2022-10-09T15:29:17.678Z,101915.16
2022-10-09T15:31:52.932Z,101912.50
2022-10-09T15:34:23.082Z,101908.00
2022-10-09T15:36:52.783Z,101906.16
2022-10-09T15:39:23.747Z,101901.66
2022-10-09T15:41:53.546Z,101896.19
2022-10-09T15:44:23.860Z,101900.56
2022-10-09T15:46:56.193Z,101895.09
2022-10-09T15:49:25.912Z,101891.47
2022-10-09T15:51:55.733Z,101883.38
2022-10-09T15:54:25.582Z,101888.59
2022-10-09T15:56:55.336Z,101884.03
2022-10-09T15:59:25.890Z,101871.59
2022-10-09T16:01:58.442Z,101870.63
2022-10-09T16:04:28.204Z,101866.09
2022-10-09T16:06:58.267Z,101853.66
2022-10-09T16:09:27.962Z,101867.72
2022-10-09T16:11:57.670Z,101860.50
2022-10-09T16:14:30.228Z,101861.25
2022-10-09T16:17:03.921Z,101858.50
2022-10-09T16:19:34.383Z,101862.84
2022-10-09T16:22:05.278Z,101860.91
2022-10-09T16:24:35.121Z,101851.13
2022-10-09T16:27:04.888Z,101850.16
2022-10-09T16:29:34.620Z,101844.69
2022-10-09T16:32:07.052Z,101856.94
2022-10-09T16:34:36.782Z,101853.25
2022-10-09T16:37:06.589Z,101857.56
2022-10-09T16:39:36.539Z,101850.31
2022-10-09T16:42:06.807Z,101851.09
2022-10-09T16:44:36.553Z,101848.34
2022-10-09T16:47:08.986Z,101848.31
2022-10-09T16:49:38.717Z,101844.59
2022-10-09T16:52:08.482Z,101846.19
2022-10-09T16:54:39.099Z,101849.56
2022-10-09T16:57:08.856Z,101844.97
2022-10-09T16:59:38.741Z,101849.22
2022-10-09T17:02:13.293Z,101849.03
2022-10-09T17:04:43.622Z,101855.03
2022-10-09T17:07:14.242Z,101853.97
2022-10-09T17:09:44.034Z,101855.47
2022-10-09T17:12:13.948Z,101863.16
2022-10-09T17:14:43.896Z,101861.19
2022-10-09T17:17:16.574Z,101858.41
2022-10-09T17:19:46.345Z,101859.97
2022-10-09T17:22:16.123Z,101856.25
2022-10-09T17:24:46.082Z,101860.44
2022-10-09T17:27:15.904Z,101862.06
2022-10-09T17:29:45.965Z,101862.81
2022-10-09T17:32:18.485Z,101861.72
2022-10-09T17:34:48.429Z,101863.34
2022-10-09T17:37:18.163Z,101859.63
2022-10-09T17:39:52.040Z,101853.22
2022-10-09T17:42:22.220Z,101850.22
2022-10-09T17:44:51.957Z,101860.59
2022-10-09T17:47:24.405Z,101851.59
2022-10-09T17:49:54.850Z,101850.50
2022-10-09T17:52:24.650Z,101854.78
2022-10-09T17:54:54.609Z,101852.84
2022-10-09T17:57:24.411Z,101848.25
2022-10-09T17:59:54.516Z,101845.44
2022-10-09T18:02:27.043Z,101837.28
2022-10-09T18:04:58.276Z,101838.91
2022-10-09T18:07:28.384Z,101835.19
2022-10-09T18:09:58.267Z,101829.63
2022-10-09T18:12:28.067Z,101825.91
2022-10-09T18:14:59.420Z,101823.09
2022-10-09T18:17:33.647Z,101824.63
2022-10-09T18:20:03.550Z,101810.31
2022-10-09T18:22:33.345Z,101811.91
2022-10-09T18:25:03.164Z,101812.63
2022-10-09T18:27:32.990Z,101804.53
2022-10-09T18:30:02.896Z,101806.06
2022-10-09T18:32:35.413Z,101802.34
2022-10-09T18:35:05.238Z,101799.56
2022-10-09T18:37:35.168Z,101792.28
2022-10-09T18:40:05.054Z,101784.25
2022-10-09T18:42:34.957Z,101780.59
2022-10-09T18:45:05.504Z,101782.19
2022-10-09T18:47:38.844Z,101778.47
2022-10-09T18:50:12.188Z,101777.28
2022-10-09T18:52:44.380Z,101785.09
2022-10-09T18:55:17.731Z,101772.63
2022-10-09T18:57:49.013Z,101772.41
2022-10-09T19:00:19.780Z,101765.28
2022-10-09T19:02:52.352Z,101765.97
2022-10-09T19:05:22.374Z,101753.31
2022-10-09T19:07:52.600Z,101752.38
2022-10-09T19:10:22.676Z,101761.78
2022-10-09T19:12:52.747Z,101759.88
2022-10-09T19:15:22.717Z,101758.81
2022-10-09T19:17:55.252Z,101748.94
2022-10-09T19:20:25.124Z,101748.81
2022-10-09T19:22:55.086Z,101749.56
2022-10-09T19:25:25.548Z,101747.81
2022-10-09T19:27:55.380Z,101747.69
2022-10-09T19:30:25.258Z,101740.56
2022-10-09T19:32:57.881Z,101742.22
2022-10-09T19:35:27.635Z,101742.97
2022-10-09T19:37:59.221Z,101742.16
2022-10-09T19:40:28.984Z,101732.41
2022-10-09T19:42:58.679Z,101734.94
2022-10-09T19:45:28.412Z,101722.59
2022-10-09T19:48:01.093Z,101727.81
2022-10-09T19:50:31.196Z,101727.72
2022-10-09T19:53:04.380Z,101728.44
2022-10-09T19:55:35.524Z,101724.84
2022-10-09T19:58:06.826Z,101722.97
2022-10-09T20:00:36.904Z,101724.53
2022-10-09T20:03:09.306Z,101716.50
2022-10-09T20:05:39.142Z,101719.09
2022-10-09T20:08:09.248Z,101719.03
2022-10-09T20:10:41.658Z,101715.41
2022-10-09T20:13:11.365Z,101709.13
2022-10-09T20:15:44.831Z,101709.88
2022-10-09T20:18:17.162Z,101705.38
2022-10-09T20:20:49.911Z,101702.41
2022-10-09T20:23:19.612Z,101709.19
2022-10-09T20:25:50.202Z,101703.75
2022-10-09T20:28:20.024Z,101698.44
2022-10-09T20:30:58.605Z,101696.56
2022-10-09T20:33:31.150Z,101684.22
2022-10-09T20:36:00.856Z,101687.63
2022-10-09T20:38:30.875Z,101683.13
2022-10-09T20:41:06.758Z,101679.44
2022-10-09T20:43:36.546Z,101677.59
2022-10-09T20:46:09.245Z,101673.88
2022-10-09T20:48:41.606Z,101666.69
2022-10-09T20:51:11.464Z,101670.09
2022-10-09T20:53:41.366Z,101663.84
2022-10-09T20:56:12.831Z,101657.56
2022-10-09T20:58:42.956Z,101656.50
2022-10-09T21:01:16.321Z,101649.38
2022-10-09T21:03:48.697Z,101648.38
2022-10-09T21:06:20.116Z,101646.50
2022-10-09T21:08:50.319Z,101638.50
2022-10-09T21:11:21.690Z,101638.50
2022-10-09T21:13:52.413Z,101632.34
2022-10-09T21:16:23.534Z,101630.56
2022-10-09T21:19:00.469Z,101630.47
2022-10-09T21:21:31.656Z,101629.63
2022-10-09T21:24:02.610Z,101619.09
2022-10-09T21:26:35.647Z,101618.06
2022-10-09T21:29:06.889Z,101614.47
2022-10-09T21:31:37.152Z,101611.75
2022-10-09T21:34:09.481Z,101619.59
2022-10-09T21:37:02.284Z,101618.69
2022-10-09T21:39:33.507Z,101615.13
2022-10-09T21:42:03.262Z,101616.88
2022-10-09T21:44:33.003Z,101619.50
2022-10-09T21:47:02.879Z,101613.25
2022-10-09T21:49:35.212Z,101602.69
2022-10-09T21:52:04.934Z,101606.09
2022-10-09T21:54:34.644Z,101612.31
2022-10-09T21:57:04.430Z,101604.44
2022-10-09T21:59:34.182Z,101599.19
2022-10-09T22:02:03.925Z,101601.81
2022-10-09T22:04:36.540Z,101594.72
2022-10-09T22:07:06.266Z,101592.03
2022-10-09T22:09:35.981Z,101585.03
2022-10-09T22:12:05.754Z,101573.63
2022-10-09T22:14:35.476Z,101569.19
2022-10-09T22:17:05.186Z,101569.13
2022-10-09T22:19:37.555Z,101558.63
2022-10-09T22:22:07.270Z,101561.97
2022-10-09T22:24:37.002Z,101558.38
2022-10-09T22:27:07.489Z,101556.63
2022-10-09T22:29:38.355Z,101561.06
2022-10-09T22:32:08.941Z,101551.47
2022-10-09T22:34:41.313Z,101540.03
2022-10-09T22:37:11.043Z,101539.22
2022-10-09T22:39:40.766Z,101533.94
2022-10-09T22:42:10.484Z,101531.25
2022-10-09T22:44:40.485Z,101533.94
2022-10-09T22:47:10.303Z,101523.44
2022-10-09T22:49:42.713Z,101527.06
2022-10-09T22:52:12.460Z,101530.66
2022-10-09T22:54:42.193Z,101533.34
2022-10-09T22:57:11.926Z,101530.81
2022-10-09T22:59:41.628Z,101533.34
2022-10-09T23:02:11.504Z,101529.00
2022-10-09T23:04:43.854Z,101528.19
2022-10-09T23:07:13.694Z,101525.47
2022-10-09T23:09:43.826Z,101524.50
2022-10-09T23:12:13.550Z,101525.47
2022-10-09T23:14:43.562Z,101524.63
2022-10-09T23:17:13.314Z,101518.47
2022-10-09T23:19:45.696Z,101518.56
2022-10-09T23:22:15.377Z,101509.78
2022-10-09T23:24:45.233Z,101509.78
2022-10-09T23:27:14.972Z,101495.66
2022-10-09T23:29:44.663Z,101504.34
2022-10-09T23:32:14.392Z,101500.78
2022-10-09T23:34:46.906Z,101492.78
2022-10-09T23:37:16.627Z,101490.06
2022-10-09T23:39:46.334Z,101475.97
2022-10-09T23:42:16.046Z,101474.16
2022-10-09T23:44:45.752Z,101466.28
2022-10-09T23:47:15.495Z,101460.03
2022-10-09T23:49:47.786Z,101470.50
2022-10-09T23:52:17.504Z,101468.69
2022-10-09T23:54:47.201Z,101461.72
2022-10-09T23:57:16.910Z,101459.03
2022-10-09T23:59:46.831Z,101451.22
